createdAt,value
2019-05-02T00:01:50.010Z,15.30
2019-05-02T00:04:21.311Z,14.97
2019-05-02T00:07:07.763Z,15.67
2019-05-02T00:09:47.393Z,15.03
2019-05-02T00:12:13.246Z,15.23
2019-05-02T00:14:43.664Z,15.60
2019-05-02T00:17:25.831Z,16.90
2019-05-02T00:19:55.290Z,15.27
2019-05-02T00:22:25.840Z,18.43
2019-05-02T00:24:56.279Z,17.50
2019-05-02T00:27:26.727Z,17.13
2019-05-02T00:29:58.658Z,17.40
2019-05-02T00:32:32.642Z,17.87
2019-05-02T00:35:10.776Z,17.00
2019-05-02T00:37:43.887Z,17.10
2019-05-02T00:40:29.655Z,16.73
2019-05-02T00:43:01.905Z,17.93
2019-05-02T00:45:33.618Z,18.73
2019-05-02T00:48:23.224Z,17.97
2019-05-02T00:50:58.271Z,17.17
2019-05-02T00:53:36.535Z,18.20
2019-05-02T00:56:09.120Z,19.00
2019-05-02T00:58:42.650Z,17.20
2019-05-02T01:01:29.436Z,16.97
2019-05-02T01:04:27.523Z,17.07
2019-05-02T01:06:56.838Z,16.07
2019-05-02T01:09:27.297Z,15.67
2019-05-02T01:11:57.859Z,18.37
2019-05-02T01:14:31.884Z,17.43
2019-05-02T01:17:12.954Z,17.80
2019-05-02T01:19:47.359Z,17.63
2019-05-02T01:22:16.371Z,16.80
2019-05-02T01:24:49.284Z,17.43
2019-05-02T01:27:28.662Z,17.40
2019-05-02T01:30:18.277Z,17.07
2019-05-02T01:33:06.474Z,16.43
2019-05-02T01:35:53.068Z,18.20
2019-05-02T01:38:34.411Z,17.83
2019-05-02T01:41:04.851Z,16.67
2019-05-02T01:43:35.293Z,17.30
2019-05-02T01:46:17.215Z,17.57
2019-05-02T01:48:47.895Z,17.47
2019-05-02T01:51:18.363Z,17.17
2019-05-02T01:53:48.809Z,16.30
2019-05-02T01:56:19.226Z,18.37
2019-05-02T01:58:53.059Z,17.63
2019-05-02T02:01:23.322Z,17.37
2019-05-02T02:03:53.820Z,18.57
2019-05-02T02:06:24.217Z,17.47
2019-05-02T02:08:54.665Z,16.80
2019-05-02T02:11:28.314Z,16.30
2019-05-02T02:13:57.253Z,17.83
2019-05-02T02:16:27.742Z,17.30
2019-05-02T02:19:05.413Z,16.77
2019-05-02T02:21:43.203Z,17.50
2019-05-02T02:24:21.051Z,16.60
2019-05-02T02:26:50.272Z,17.47
2019-05-02T02:29:20.699Z,18.50
2019-05-02T02:31:51.094Z,19.03
2019-05-02T02:34:29.215Z,17.37
2019-05-02T02:36:53.693Z,17.40
2019-05-02T02:39:24.169Z,18.47
2019-05-02T02:41:59.712Z,17.93
2019-05-02T02:45:04.368Z,18.27
2019-05-02T02:47:34.767Z,17.60
2019-05-02T02:50:05.595Z,18.20
2019-05-02T02:52:37.753Z,18.17
2019-05-02T02:55:09.214Z,17.90
2019-05-02T02:57:39.649Z,16.47
2019-05-02T03:00:11.109Z,18.37
2019-05-02T03:02:47.614Z,20.17
2019-05-02T03:05:18.748Z,19.97
2019-05-02T03:07:47.357Z,20.63
2019-05-02T03:10:18.340Z,20.47
2019-05-02T03:13:06.419Z,22.60
2019-05-02T03:15:41.877Z,21.23
2019-05-02T03:18:12.587Z,19.37
2019-05-02T03:20:43.086Z,21.67
2019-05-02T03:23:21.677Z,20.43
2019-05-02T03:25:51.408Z,19.27
2019-05-02T03:28:22.103Z,20.00
2019-05-02T03:30:55.000Z,21.27
2019-05-02T03:33:26.987Z,22.27
2019-05-02T03:36:00.067Z,21.93
2019-05-02T03:38:32.752Z,21.47
2019-05-02T03:41:02.655Z,21.20
2019-05-02T03:43:33.188Z,21.83
2019-05-02T03:46:03.610Z,22.33
2019-05-02T03:48:35.245Z,22.53
2019-05-02T03:51:21.585Z,22.50
2019-05-02T03:53:46.253Z,22.20
2019-05-02T03:56:16.900Z,23.00
2019-05-02T03:58:48.589Z,21.57
2019-05-02T04:01:19.995Z,22.57
2019-05-02T04:03:50.407Z,21.90
2019-05-02T04:06:23.672Z,22.57
2019-05-02T04:08:59.826Z,22.17
2019-05-02T04:11:38.339Z,22.13
2019-05-02T04:14:01.868Z,22.40
2019-05-02T04:16:33.228Z,24.27
2019-05-02T04:19:06.353Z,23.33
2019-05-02T04:21:39.502Z,24.13
2019-05-02T04:24:15.129Z,23.77
2019-05-02T04:26:52.663Z,23.53
2019-05-02T04:29:17.096Z,24.77
2019-05-02T04:31:49.130Z,24.60
2019-05-02T04:34:19.572Z,23.60
2019-05-02T04:36:59.899Z,23.77
2019-05-02T04:39:22.232Z,23.97
2019-05-02T04:41:52.746Z,23.60
2019-05-02T04:44:31.567Z,23.10
2019-05-02T04:46:59.714Z,24.40
2019-05-02T04:49:33.010Z,23.67
2019-05-02T04:52:07.092Z,23.00
2019-05-02T04:54:32.920Z,23.60
2019-05-02T04:57:08.215Z,22.90
2019-05-02T04:59:39.819Z,22.00
2019-05-02T05:02:11.834Z,24.47
2019-05-02T05:04:46.259Z,23.97
2019-05-02T05:07:14.518Z,24.37
2019-05-02T05:09:47.880Z,24.10
2019-05-02T05:12:19.450Z,23.53
2019-05-02T05:14:51.025Z,22.37
2019-05-02T05:17:25.206Z,23.83
2019-05-02T05:19:53.849Z,24.30
2019-05-02T05:22:24.354Z,24.37
2019-05-02T05:25:07.509Z,25.63
2019-05-02T05:27:38.170Z,27.80
2019-05-02T05:30:15.210Z,29.07
2019-05-02T05:32:41.049Z,29.13
2019-05-02T05:35:13.288Z,27.83
2019-05-02T05:37:51.419Z,27.50
2019-05-02T05:40:17.674Z,26.70
2019-05-02T05:42:48.474Z,25.57
2019-05-02T05:45:19.521Z,26.33
2019-05-02T05:48:01.939Z,27.93
2019-05-02T05:50:41.530Z,27.17
2019-05-02T05:53:07.921Z,29.80
2019-05-02T05:55:39.692Z,29.07
2019-05-02T05:58:15.333Z,31.63
2019-05-02T06:00:45.943Z,32.17
2019-05-02T06:03:17.753Z,30.40
2019-05-02T06:05:47.960Z,31.27
2019-05-02T06:08:19.975Z,31.50
2019-05-02T06:10:50.717Z,31.03
2019-05-02T06:13:21.168Z,31.63
2019-05-02T06:16:02.246Z,31.57
2019-05-02T06:18:28.214Z,30.97
2019-05-02T06:20:58.504Z,33.33
2019-05-02T06:23:30.986Z,33.33
2019-05-02T06:26:07.966Z,36.20
2019-05-02T06:28:41.667Z,33.03
2019-05-02T06:31:10.564Z,34.00
2019-05-02T06:33:41.691Z,34.80
2019-05-02T06:36:21.295Z,36.90
2019-05-02T06:38:58.348Z,37.13
2019-05-02T06:41:28.988Z,35.93
2019-05-02T06:43:59.864Z,36.80
2019-05-02T06:46:30.363Z,37.10
2019-05-02T06:49:05.083Z,38.50
2019-05-02T06:51:35.490Z,37.57
2019-05-02T06:54:05.946Z,39.57
2019-05-02T06:56:36.350Z,38.90
2019-05-02T06:59:07.078Z,39.03
2019-05-02T07:01:57.400Z,38.23
2019-05-02T07:04:28.505Z,37.77
2019-05-02T07:07:00.047Z,38.93
2019-05-02T07:09:40.758Z,39.37
2019-05-02T07:12:09.904Z,37.93
2019-05-02T07:14:40.753Z,36.43
2019-05-02T07:17:32.064Z,36.60
2019-05-02T07:20:03.942Z,36.73
2019-05-02T07:22:53.091Z,37.83
2019-05-02T07:25:24.756Z,37.30
2019-05-02T07:27:55.625Z,36.67
2019-05-02T07:30:36.292Z,37.07
2019-05-02T07:33:09.579Z,37.23
2019-05-02T07:35:43.130Z,37.87
2019-05-02T07:38:14.372Z,38.20
2019-05-02T07:40:48.144Z,38.40
2019-05-02T07:43:21.142Z,39.40
2019-05-02T07:45:50.144Z,35.17
2019-05-02T07:48:24.306Z,35.97
2019-05-02T07:50:57.229Z,37.43
2019-05-02T07:53:27.648Z,37.17
2019-05-02T07:55:58.162Z,36.40
2019-05-02T07:58:32.781Z,36.40
2019-05-02T08:01:08.065Z,36.83
2019-05-02T08:03:36.924Z,38.33
2019-05-02T08:06:07.338Z,36.97
2019-05-02T08:08:38.109Z,36.27
2019-05-02T08:11:10.911Z,36.10
2019-05-02T08:13:44.502Z,36.57
2019-05-02T08:16:15.144Z,37.90
2019-05-02T08:18:47.322Z,35.37
2019-05-02T08:21:17.847Z,36.97
2019-05-02T08:23:48.279Z,37.27
2019-05-02T08:26:21.651Z,35.20
2019-05-02T08:29:06.415Z,34.00
2019-05-02T08:31:39.973Z,36.93
2019-05-02T08:34:15.040Z,34.20
2019-05-02T08:36:42.667Z,34.80
2019-05-02T08:39:16.185Z,35.00
2019-05-02T08:41:51.304Z,31.33
2019-05-02T08:44:20.566Z,30.73
2019-05-02T08:46:53.202Z,32.77
2019-05-02T08:49:24.291Z,30.87
2019-05-02T08:51:54.781Z,30.60
2019-05-02T08:54:28.028Z,29.93
2019-05-02T08:57:03.083Z,27.57
2019-05-02T08:59:40.836Z,27.50
2019-05-02T09:02:10.249Z,23.63
2019-05-02T09:04:40.642Z,24.60
2019-05-02T09:07:14.299Z,26.80
2019-05-02T09:09:44.989Z,24.50
2019-05-02T09:12:21.081Z,22.93
2019-05-02T09:14:54.073Z,21.60
2019-05-02T09:17:35.113Z,20.37
2019-05-02T09:20:02.386Z,20.30
2019-05-02T09:23:02.121Z,20.47
2019-05-02T09:26:02.725Z,19.23
2019-05-02T09:28:33.826Z,18.37
2019-05-02T09:31:07.464Z,16.57
2019-05-02T09:33:42.435Z,17.33
2019-05-02T09:36:13.200Z,17.23
2019-05-02T09:38:48.766Z,16.17
2019-05-02T09:41:26.850Z,19.03
2019-05-02T09:43:58.142Z,16.77
2019-05-02T09:46:35.923Z,15.20
2019-05-02T09:49:11.948Z,15.60
2019-05-02T09:51:42.047Z,15.97
2019-05-02T09:54:15.868Z,14.90
2019-05-02T09:56:47.512Z,13.87
2019-05-02T09:59:33.064Z,13.80
2019-05-02T10:02:07.297Z,13.13
2019-05-02T10:04:37.732Z,12.97
2019-05-02T10:07:12.749Z,11.67
2019-05-02T10:09:43.964Z,10.87
2019-05-02T10:12:17.282Z,12.50
2019-05-02T10:14:47.717Z,11.30
2019-05-02T10:17:23.145Z,10.23
2019-05-02T10:19:57.397Z,9.47
2019-05-02T10:22:32.260Z,8.20
2019-05-02T10:25:04.086Z,8.40
2019-05-02T10:27:38.419Z,10.90
2019-05-02T10:30:11.903Z,9.60
2019-05-02T10:32:42.748Z,10.10
2019-05-02T10:35:18.107Z,10.57
2019-05-02T10:37:52.133Z,10.43
2019-05-02T10:40:22.838Z,10.50
2019-05-02T10:42:53.254Z,11.20
2019-05-02T10:45:24.111Z,11.00
2019-05-02T10:48:02.271Z,11.07
2019-05-02T10:50:42.946Z,11.60
2019-05-02T10:53:15.811Z,13.50
2019-05-02T10:55:46.672Z,11.63
2019-05-02T10:58:25.854Z,11.83
2019-05-02T11:01:02.749Z,11.20
2019-05-02T11:03:43.786Z,11.13
2019-05-02T11:06:12.651Z,12.50
2019-05-02T11:08:46.231Z,12.60
2019-05-02T11:11:17.834Z,12.77
2019-05-02T11:14:08.756Z,11.77
2019-05-02T11:17:08.848Z,12.23
2019-05-02T11:19:45.349Z,13.93
2019-05-02T11:22:35.203Z,12.97
2019-05-02T11:25:08.695Z,12.30
2019-05-02T11:27:41.845Z,12.80
2019-05-02T11:30:16.818Z,11.77
2019-05-02T11:32:46.100Z,12.37
2019-05-02T11:35:16.899Z,13.13
2019-05-02T11:37:47.931Z,13.00
2019-05-02T11:40:22.902Z,12.43
2019-05-02T11:43:02.775Z,12.27
2019-05-02T11:45:32.227Z,13.17
2019-05-02T11:48:09.348Z,13.20
2019-05-02T11:50:39.784Z,12.97
2019-05-02T11:53:24.829Z,12.23
2019-05-02T11:55:43.893Z,13.00
2019-05-02T11:58:14.418Z,12.80
2019-05-02T12:00:49.463Z,12.60
2019-05-02T12:03:42.361Z,11.63
2019-05-02T12:06:17.073Z,12.20
2019-05-02T12:08:52.526Z,12.40
2019-05-02T12:11:23.153Z,12.07
2019-05-02T12:13:57.798Z,11.43
2019-05-02T12:16:32.316Z,12.07
2019-05-02T12:19:11.290Z,11.50
2019-05-02T12:21:41.997Z,12.10
2019-05-02T12:24:18.517Z,11.83
2019-05-02T12:26:49.188Z,11.07
2019-05-02T12:29:22.443Z,11.73
2019-05-02T12:32:12.054Z,12.07
2019-05-02T12:34:42.838Z,11.20
2019-05-02T12:37:13.890Z,10.83
2019-05-02T12:39:46.505Z,10.83
2019-05-02T12:42:17.598Z,12.00
2019-05-02T12:44:49.937Z,10.67
2019-05-02T12:47:26.390Z,12.00
2019-05-02T12:50:00.086Z,11.47
2019-05-02T12:52:33.947Z,11.87
2019-05-02T12:55:06.963Z,11.27
2019-05-02T12:57:38.786Z,10.77
2019-05-02T13:00:12.827Z,10.43
2019-05-02T13:02:52.498Z,10.67
2019-05-02T13:05:27.511Z,10.33
2019-05-02T13:07:58.299Z,10.23
2019-05-02T13:11:07.063Z,10.17
2019-05-02T13:13:39.171Z,11.40
2019-05-02T13:16:12.226Z,11.83
2019-05-02T13:18:43.882Z,10.57
2019-05-02T13:21:17.123Z,11.00
2019-05-02T13:23:56.349Z,12.70
2019-05-02T13:26:39.640Z,11.67
2019-05-02T13:29:16.189Z,12.47
2019-05-02T13:32:19.376Z,13.37
2019-05-02T13:35:02.215Z,13.87
2019-05-02T13:37:33.314Z,14.00
2019-05-02T13:40:20.220Z,14.37
2019-05-02T13:42:52.407Z,14.70
2019-05-02T13:45:44.669Z,15.20
2019-05-02T13:48:15.219Z,14.90
2019-05-02T13:50:51.913Z,14.53
2019-05-02T13:53:23.359Z,13.73
2019-05-02T13:56:14.443Z,13.97
2019-05-02T13:58:49.273Z,13.77
2019-05-02T14:01:22.433Z,14.53
2019-05-02T14:04:03.638Z,14.50
2019-05-02T14:06:37.925Z,15.03
2019-05-02T14:09:26.103Z,14.57
2019-05-02T14:12:04.174Z,13.77
2019-05-02T14:14:38.151Z,13.27
2019-05-02T14:17:11.789Z,15.60
2019-05-02T14:19:43.252Z,15.43
2019-05-02T14:22:15.271Z,14.97
2019-05-02T14:24:47.996Z,16.00
2019-05-02T14:27:22.211Z,16.50
2019-05-02T14:30:02.253Z,15.33
2019-05-02T14:32:28.038Z,15.50
2019-05-02T14:35:18.582Z,15.37
2019-05-02T14:37:47.213Z,15.80
2019-05-02T14:40:26.309Z,16.13
2019-05-02T14:43:07.095Z,15.63
2019-05-02T14:45:36.330Z,16.13
2019-05-02T14:48:24.168Z,15.90
2019-05-02T14:50:52.147Z,17.47
2019-05-02T14:53:25.458Z,14.40
2019-05-02T14:56:15.096Z,15.40
2019-05-02T14:58:48.355Z,15.00
2019-05-02T15:01:26.135Z,15.80
2019-05-02T15:04:08.712Z,15.70
2019-05-02T15:06:47.734Z,16.17
2019-05-02T15:09:26.841Z,16.97
2019-05-02T15:12:02.402Z,15.73
2019-05-02T15:14:40.289Z,15.40
2019-05-02T15:17:18.318Z,15.47
2019-05-02T15:19:52.682Z,16.10
2019-05-02T15:22:27.504Z,15.83
2019-05-02T15:24:59.828Z,14.50
2019-05-02T15:27:58.575Z,15.10
2019-05-02T15:30:29.966Z,15.30
2019-05-02T15:33:17.193Z,15.23
2019-05-02T15:35:57.312Z,14.50
2019-05-02T15:38:28.318Z,16.80
2019-05-02T15:41:07.026Z,16.10
2019-05-02T15:43:39.330Z,15.70
2019-05-02T15:46:10.168Z,16.30
2019-05-02T15:48:43.915Z,55.37
2019-05-02T15:51:15.971Z,16.80
2019-05-02T15:54:07.073Z,16.47
2019-05-02T15:56:36.866Z,15.97
2019-05-02T15:59:10.669Z,16.63
2019-05-02T16:01:57.081Z,25.03
2019-05-02T16:04:33.979Z,69.43
2019-05-02T16:07:30.334Z,194.50
2019-05-02T16:10:03.348Z,53.43
2019-05-02T16:12:42.067Z,67.17
2019-05-02T16:15:21.029Z,77.90
2019-05-02T16:17:52.173Z,64.17
2019-05-02T16:20:47.362Z,126.20
2019-05-02T16:23:18.961Z,68.53
2019-05-02T16:25:48.448Z,49.07
2019-05-02T16:28:21.644Z,107.20
2019-05-02T16:30:57.428Z,75.57
2019-05-02T16:33:31.927Z,200.97
2019-05-02T16:36:33.817Z,150.23
2019-05-02T16:39:05.188Z,427.23
2019-05-02T16:41:41.293Z,128.77
2019-05-02T16:44:19.999Z,143.60
2019-05-02T16:46:54.352Z,30.03
2019-05-02T16:49:35.330Z,22.90
2019-05-02T16:52:08.679Z,18.20
2019-05-02T16:54:41.708Z,16.17
2019-05-02T16:57:12.654Z,19.57
2019-05-02T16:59:56.189Z,13.13
2019-05-02T17:02:29.202Z,11.33
2019-05-02T17:05:09.369Z,10.73
2019-05-02T17:07:59.358Z,13.90
2019-05-02T17:10:36.824Z,9.93
2019-05-02T17:13:13.379Z,9.27
2019-05-02T17:15:54.109Z,10.20
2019-05-02T17:18:56.424Z,8.90
2019-05-02T17:21:33.713Z,9.17
2019-05-02T17:24:02.565Z,8.13
2019-05-02T17:26:36.855Z,8.83
2019-05-02T17:29:07.771Z,8.70
2019-05-02T17:31:40.089Z,7.50
2019-05-02T17:34:15.286Z,8.20
2019-05-02T17:36:59.068Z,7.80
2019-05-02T17:39:42.637Z,7.43
2019-05-02T17:42:22.343Z,7.50
2019-05-02T17:44:51.792Z,7.43
2019-05-02T17:47:23.836Z,7.70
2019-05-02T17:49:57.041Z,7.13
2019-05-02T17:52:34.639Z,7.93
2019-05-02T17:55:12.052Z,7.27
2019-05-02T17:58:04.567Z,8.00
2019-05-02T18:00:43.048Z,8.17
2019-05-02T18:03:16.991Z,7.83
2019-05-02T18:05:54.271Z,8.40
2019-05-02T18:08:36.184Z,7.17
2019-05-02T18:11:12.710Z,7.47
2019-05-02T18:13:47.757Z,8.97
2019-05-02T18:16:22.353Z,7.83
2019-05-02T18:18:52.873Z,7.83
2019-05-02T18:21:28.643Z,7.67
2019-05-02T18:24:23.637Z,7.43
2019-05-02T18:26:54.210Z,7.87
2019-05-02T18:29:27.168Z,8.53
2019-05-02T18:31:59.167Z,9.03
2019-05-02T18:34:51.970Z,8.50
2019-05-02T18:37:25.372Z,8.27
2019-05-02T18:40:05.275Z,9.47
2019-05-02T18:42:38.032Z,9.17
2019-05-02T18:45:18.318Z,9.20
2019-05-02T18:47:54.020Z,8.73
2019-05-02T18:50:46.910Z,7.43
2019-05-02T18:53:18.585Z,8.13
2019-05-02T18:55:56.701Z,7.50
2019-05-02T18:58:36.237Z,7.80
2019-05-02T19:01:08.489Z,8.17
2019-05-02T19:03:52.629Z,8.50
2019-05-02T19:06:19.730Z,7.50
2019-05-02T19:08:52.261Z,7.77
2019-05-02T19:11:26.856Z,6.93
2019-05-02T19:13:59.203Z,7.77
2019-05-02T19:16:38.609Z,7.67
2019-05-02T19:19:13.210Z,7.57
2019-05-02T19:21:49.388Z,7.00
2019-05-02T19:24:27.493Z,7.20
2019-05-02T19:27:02.536Z,7.73
2019-05-02T19:29:36.304Z,7.53
2019-05-02T19:32:12.329Z,7.77
2019-05-02T19:34:46.359Z,8.00
2019-05-02T19:37:21.705Z,7.77
2019-05-02T19:39:52.492Z,8.13
2019-05-02T19:42:28.920Z,6.93
2019-05-02T19:45:03.672Z,7.87
2019-05-02T19:47:54.330Z,6.97
2019-05-02T19:50:43.043Z,7.27
2019-05-02T19:53:34.577Z,6.87
2019-05-02T19:56:07.167Z,7.50
2019-05-02T19:58:42.742Z,7.83
2019-05-02T20:01:17.532Z,7.40
2019-05-02T20:03:56.767Z,8.40
2019-05-02T20:06:46.172Z,8.50
2019-05-02T20:09:23.792Z,8.67
2019-05-02T20:11:57.198Z,8.20
2019-05-02T20:14:27.913Z,8.27
2019-05-02T20:17:20.210Z,8.80
2019-05-02T20:20:05.389Z,8.27
2019-05-02T20:22:40.993Z,8.30
2019-05-02T20:25:12.849Z,8.97
2019-05-02T20:27:48.091Z,7.63
2019-05-02T20:30:19.136Z,8.50
2019-05-02T20:32:57.692Z,8.40
2019-05-02T20:35:34.102Z,9.97
2019-05-02T20:38:06.211Z,9.27
2019-05-02T20:40:42.694Z,8.80
2019-05-02T20:43:16.910Z,8.97
2019-05-02T20:46:02.373Z,8.10
2019-05-02T20:48:34.451Z,9.03
2019-05-02T20:51:05.128Z,9.13
2019-05-02T20:53:36.094Z,9.13
2019-05-02T20:56:07.192Z,8.83
2019-05-02T20:58:46.711Z,9.77
2019-05-02T21:01:21.554Z,9.13
2019-05-02T21:03:52.325Z,10.00
2019-05-02T21:06:40.863Z,9.47
2019-05-02T21:09:47.541Z,10.33
2019-05-02T21:12:22.802Z,9.43
2019-05-02T21:14:53.215Z,9.63
2019-05-02T21:17:25.217Z,9.37
2019-05-02T21:19:57.543Z,10.47
2019-05-02T21:22:32.718Z,8.43
2019-05-02T21:25:03.579Z,9.70
2019-05-02T21:27:35.323Z,9.90
2019-05-02T21:30:08.393Z,11.37
2019-05-02T21:32:40.208Z,10.43
2019-05-02T21:35:11.901Z,11.03
2019-05-02T21:37:42.591Z,11.90
2019-05-02T21:40:20.112Z,11.73
2019-05-02T21:42:52.273Z,9.97
2019-05-02T21:45:28.279Z,11.93
2019-05-02T21:47:58.796Z,10.50
2019-05-02T21:50:58.933Z,11.90
2019-05-02T21:53:38.091Z,11.00
2019-05-02T21:56:25.401Z,11.93
2019-05-02T21:59:12.329Z,10.87
2019-05-02T22:01:52.187Z,10.47
2019-05-02T22:04:31.754Z,10.90
2019-05-02T22:07:05.303Z,10.80
2019-05-02T22:09:36.251Z,10.37
2019-05-02T22:12:11.948Z,11.50
2019-05-02T22:14:46.655Z,12.83
2019-05-02T22:17:21.578Z,11.93
2019-05-02T22:19:52.597Z,11.17
2019-05-02T22:22:23.118Z,11.87
2019-05-02T22:24:53.585Z,12.07
2019-05-02T22:27:28.754Z,11.87
2019-05-02T22:30:17.919Z,12.10
2019-05-02T22:32:51.688Z,12.47
2019-05-02T22:35:24.858Z,13.33
2019-05-02T22:37:58.049Z,13.37
2019-05-02T22:40:41.755Z,12.87
2019-05-02T22:43:01.964Z,13.40
2019-05-02T22:45:34.263Z,11.10
2019-05-02T22:48:04.805Z,11.03
2019-05-02T22:50:35.246Z,11.53
2019-05-02T22:53:05.661Z,10.43
2019-05-02T22:55:37.427Z,11.03
2019-05-02T22:58:10.725Z,11.23
2019-05-02T23:00:41.634Z,10.60
2019-05-02T23:03:12.577Z,10.17
2019-05-02T23:05:43.150Z,10.80
2019-05-02T23:08:13.539Z,11.00
2019-05-02T23:11:08.865Z,10.90
2019-05-02T23:13:39.641Z,10.10
2019-05-02T23:16:10.076Z,10.73
2019-05-02T23:18:42.591Z,11.63
2019-05-02T23:21:13.118Z,10.80
2019-05-02T23:23:45.890Z,13.07
2019-05-02T23:26:47.475Z,13.87
2019-05-02T23:29:18.293Z,15.00
2019-05-02T23:31:49.048Z,14.33
2019-05-02T23:34:23.295Z,13.87
2019-05-02T23:36:52.517Z,14.73
2019-05-02T23:39:22.993Z,14.33
2019-05-02T23:41:53.689Z,14.53
2019-05-02T23:44:24.157Z,13.70
2019-05-02T23:46:57.083Z,14.37
2019-05-02T23:49:27.671Z,15.30
2019-05-02T23:51:59.480Z,15.37
2019-05-02T23:54:29.924Z,14.47
2019-05-02T23:57:00.367Z,15.43
2019-05-02T23:59:31.788Z,14.80
